createdAt,value
2023-02-01T00:01:36.408Z,100050.25
2023-02-01T00:04:05.138Z,100048.31
2023-02-01T00:06:33.751Z,100052.19
2023-02-01T00:09:02.472Z,100045.69
2023-02-01T00:11:31.324Z,100049.44
2023-02-01T00:14:00.143Z,100045.97
2023-02-01T00:16:31.776Z,100052.06
2023-02-01T00:19:14.345Z,100046.63
2023-02-01T00:21:43.393Z,100057.06
2023-02-01T00:24:12.810Z,100048.16
2023-02-01T00:26:44.807Z,100058.03
2023-02-01T00:29:22.486Z,100044.69
2023-02-01T00:31:54.031Z,100057.88
2023-02-01T00:34:22.983Z,100054.00
2023-02-01T00:36:51.605Z,100059.56
2023-02-01T00:39:20.207Z,100062.19
2023-02-01T00:41:48.908Z,100057.34
2023-02-01T00:44:17.610Z,100062.75
2023-02-01T00:46:46.316Z,100067.47
2023-02-01T00:49:15.108Z,100059.28
2023-02-01T00:51:43.907Z,100067.44
2023-02-01T00:54:12.496Z,100063.84
2023-02-01T00:56:41.370Z,100063.56
2023-02-01T00:59:14.023Z,100066.59
2023-02-01T01:01:42.744Z,100063.41
2023-02-01T01:04:11.408Z,100069.13
2023-02-01T01:06:40.132Z,100062.31
2023-02-01T01:09:10.075Z,100061.88
2023-02-01T01:11:40.786Z,100069.94
2023-02-01T01:14:11.773Z,100070.91
2023-02-01T01:16:40.372Z,100066.84
2023-02-01T01:19:09.057Z,100074.50
2023-02-01T01:21:37.811Z,100072.00
2023-02-01T01:24:06.419Z,100068.66
2023-02-01T01:26:35.093Z,100069.22
2023-02-01T01:29:03.769Z,100065.78
2023-02-01T01:31:32.940Z,100058.91
2023-02-01T01:34:02.235Z,100066.59
2023-02-01T01:36:31.386Z,100053.91
2023-02-01T01:39:00.408Z,100054.44
2023-02-01T01:41:33.252Z,100056.41
2023-02-01T01:44:06.154Z,100053.38
2023-02-01T01:46:36.281Z,100049.06
2023-02-01T01:49:24.671Z,100031.97
2023-02-01T01:52:00.791Z,100041.16
2023-02-01T01:54:41.450Z,100032.53
2023-02-01T01:57:17.459Z,100021.28
2023-02-01T01:59:52.029Z,100014.22
2023-02-01T02:02:20.691Z,100019.91
2023-02-01T02:04:49.758Z,100020.03
2023-02-01T02:07:24.871Z,100015.72
2023-02-01T02:10:00.628Z,100009.22
2023-02-01T02:12:30.479Z,99996.31
2023-02-01T02:14:59.268Z,99998.13
2023-02-01T02:18:08.291Z,99983.81
2023-02-01T02:21:04.449Z,99986.63
2023-02-01T02:23:40.920Z,99985.03
2023-02-01T02:26:52.018Z,100000.22
2023-02-01T02:30:08.138Z,99991.31
2023-02-01T02:33:01.702Z,99993.81
2023-02-01T02:36:02.406Z,99996.44
2023-02-01T02:39:10.476Z,99995.88
2023-02-01T02:42:05.703Z,99992.13
2023-02-01T02:45:04.089Z,99982.25
2023-02-01T02:48:09.042Z,99984.03
2023-02-01T02:51:06.635Z,99975.72
2023-02-01T02:53:57.301Z,99988.19
2023-02-01T02:56:45.207Z,99989.28
2023-02-01T02:59:36.111Z,99990.41
2023-02-01T03:02:22.687Z,99993.59
2023-02-01T03:04:57.810Z,99981.81
2023-02-01T03:07:50.743Z,99975.25
2023-02-01T03:10:50.790Z,99977.72
2023-02-01T03:13:51.203Z,99971.50
2023-02-01T03:16:27.371Z,99979.97
2023-02-01T03:19:19.351Z,99977.84
2023-02-01T03:22:01.869Z,99975.50
2023-02-01T03:24:41.965Z,99978.25
2023-02-01T03:27:37.885Z,99984.38
2023-02-01T03:30:18.912Z,99977.81
2023-02-01T03:33:08.135Z,99966.97
2023-02-01T03:35:42.316Z,99961.72
2023-02-01T03:38:51.373Z,99964.66
2023-02-01T03:41:37.721Z,99959.50
2023-02-01T03:44:29.249Z,99961.59
2023-02-01T03:47:35.375Z,99954.22
2023-02-01T03:50:26.427Z,99955.91
2023-02-01T03:53:07.958Z,99955.34
2023-02-01T03:55:38.593Z,99957.56
2023-02-01T03:58:18.624Z,99948.13
2023-02-01T04:00:57.210Z,99944.72
2023-02-01T04:03:26.348Z,99942.75
2023-02-01T04:05:55.580Z,99929.16
2023-02-01T04:08:24.782Z,99941.06
2023-02-01T04:10:53.569Z,99935.78
2023-02-01T04:13:22.123Z,99939.13
2023-02-01T04:15:51.657Z,99924.56
2023-02-01T04:18:20.096Z,99925.22
2023-02-01T04:20:48.562Z,99915.97
2023-02-01T04:23:17.611Z,99914.91
2023-02-01T04:25:46.061Z,99902.53
2023-02-01T04:28:14.598Z,99908.81
2023-02-01T04:30:43.174Z,99908.66
2023-02-01T04:33:42.486Z,99899.22
2023-02-01T04:36:11.061Z,99894.00
2023-02-01T04:38:39.444Z,99899.81
2023-02-01T04:41:08.226Z,99900.25
2023-02-01T04:43:36.591Z,99887.66
2023-02-01T04:46:05.804Z,99884.09
2023-02-01T04:48:34.241Z,99885.19
2023-02-01T04:51:04.831Z,99893.63
2023-02-01T04:53:33.445Z,99890.31
2023-02-01T04:56:01.963Z,99897.53
2023-02-01T04:58:30.385Z,99884.88
2023-02-01T05:00:58.794Z,99880.66
2023-02-01T05:03:27.252Z,99891.22
2023-02-01T05:05:55.599Z,99896.66
2023-02-01T05:08:26.372Z,99882.78
2023-02-01T05:10:56.433Z,99891.28
2023-02-01T05:16:34.652Z,99888.78
2023-02-01T05:19:03.140Z,99876.66
2023-02-01T05:21:31.582Z,99875.13
2023-02-01T05:24:19.525Z,99874.44
2023-02-01T05:26:48.351Z,99877.31
2023-02-01T05:29:20.345Z,99869.53
2023-02-01T05:31:49.353Z,99866.66
2023-02-01T05:34:35.296Z,99864.19
2023-02-01T05:37:03.747Z,99875.03
2023-02-01T05:39:32.206Z,99870.72
2023-02-01T05:42:00.577Z,99867.66
2023-02-01T05:44:29.003Z,99870.28
2023-02-01T05:46:57.403Z,99868.50
2023-02-01T05:49:37.918Z,99860.47
2023-02-01T05:52:06.610Z,99855.47
2023-02-01T05:54:36.356Z,99863.84
2023-02-01T05:57:04.796Z,99862.56
2023-02-01T05:59:45.504Z,99860.09
2023-02-01T06:02:38.816Z,99848.63
2023-02-01T06:05:07.733Z,99849.00
2023-02-01T06:07:38.885Z,99844.78
2023-02-01T06:10:07.613Z,99864.22
2023-02-01T06:12:36.050Z,99856.06
2023-02-01T06:15:04.525Z,99849.78
2023-02-01T06:17:33.041Z,99855.22
2023-02-01T06:20:01.530Z,99856.13
2023-02-01T06:22:29.960Z,99837.94
2023-02-01T06:24:59.894Z,99835.16
2023-02-01T06:27:29.717Z,99858.78
2023-02-01T06:29:58.260Z,99837.50
2023-02-01T06:32:26.897Z,99843.81
2023-02-01T06:34:56.830Z,99834.63
2023-02-01T06:37:28.523Z,99833.19
2023-02-01T06:39:57.589Z,99839.75
2023-02-01T06:42:26.551Z,99831.91
2023-02-01T06:44:54.915Z,99831.28
2023-02-01T06:47:23.716Z,99822.22
2023-02-01T06:49:56.608Z,99833.25
2023-02-01T06:52:26.161Z,99823.28
2023-02-01T06:54:54.620Z,99827.25
2023-02-01T06:57:23.016Z,99821.78
2023-02-01T06:59:51.385Z,99821.41
2023-02-01T07:02:22.475Z,99818.94
2023-02-01T07:04:50.904Z,99828.41
2023-02-01T07:07:20.574Z,99819.97
2023-02-01T07:09:49.051Z,99814.69
2023-02-01T07:12:17.607Z,99814.97
2023-02-01T07:14:46.064Z,99811.38
2023-02-01T07:17:14.456Z,99816.56
2023-02-01T07:19:42.860Z,99810.69
2023-02-01T07:22:11.360Z,99815.81
2023-02-01T07:24:40.055Z,99810.22
2023-02-01T07:27:08.476Z,99814.09
2023-02-01T07:29:36.901Z,99801.25
2023-02-01T07:32:05.405Z,99808.03
2023-02-01T07:34:34.426Z,99808.50
2023-02-01T07:37:02.455Z,99807.34
2023-02-01T07:39:32.898Z,99806.53
2023-02-01T07:42:01.350Z,99806.88
2023-02-01T07:44:29.765Z,99799.28
2023-02-01T07:46:58.185Z,99791.47
2023-02-01T07:49:26.688Z,99798.13
2023-02-01T07:51:57.788Z,99783.97
2023-02-01T07:54:26.197Z,99784.97
2023-02-01T07:56:54.651Z,99799.03
2023-02-01T07:59:22.900Z,99792.91
2023-02-01T08:02:16.186Z,99799.34
2023-02-01T08:04:44.801Z,99797.69
2023-02-01T08:07:13.257Z,99799.81
2023-02-01T08:09:41.691Z,99810.56
2023-02-01T08:12:10.251Z,99812.56
2023-02-01T08:14:38.651Z,99811.19
2023-02-01T08:17:07.047Z,99814.28
2023-02-01T08:19:38.192Z,99818.41
2023-02-01T08:22:08.261Z,99794.44
2023-02-01T08:24:38.995Z,99813.44
2023-02-01T08:27:07.450Z,99806.38
2023-02-01T08:29:52.677Z,99808.28
2023-02-01T08:32:21.277Z,99815.31
2023-02-01T08:34:49.843Z,99816.94
2023-02-01T08:37:21.525Z,99812.56
2023-02-01T08:39:55.344Z,99809.53
2023-02-01T08:42:46.434Z,99819.38
2023-02-01T08:45:20.051Z,99814.19
2023-02-01T08:47:51.308Z,99826.38
2023-02-01T08:50:20.376Z,99816.81
2023-02-01T08:52:49.096Z,99821.94
2023-02-01T08:55:17.860Z,99816.50
2023-02-01T08:57:46.520Z,99815.81
2023-02-01T09:00:18.085Z,99811.94
2023-02-01T09:02:47.388Z,99819.84
2023-02-01T09:05:20.275Z,99818.94
2023-02-01T09:07:48.763Z,99832.88
2023-02-01T09:10:23.560Z,99826.91
2023-02-01T09:13:03.620Z,99836.59
2023-02-01T09:15:34.558Z,99823.75
2023-02-01T09:18:03.941Z,99827.88
2023-02-01T09:20:32.535Z,99827.34
2023-02-01T09:23:01.194Z,99840.25
2023-02-01T09:25:29.693Z,99828.47
2023-02-01T09:27:58.197Z,99845.53
2023-02-01T09:30:26.770Z,99851.44
2023-02-01T09:32:55.382Z,99847.72
2023-02-01T09:35:23.800Z,99853.25
2023-02-01T09:37:52.293Z,99851.00
2023-02-01T09:40:21.496Z,99853.19
2023-02-01T09:43:46.396Z,99846.97
2023-02-01T09:46:35.856Z,99839.66
2023-02-01T09:49:13.146Z,99849.47
2023-02-01T09:51:48.296Z,99872.72
2023-02-01T09:54:25.261Z,99872.63
2023-02-01T09:57:13.316Z,99873.16
2023-02-01T09:59:50.062Z,99865.88
2023-02-01T10:02:41.091Z,99861.44
2023-02-01T10:05:18.203Z,99861.88
2023-02-01T10:07:53.747Z,99866.41
2023-02-01T10:10:52.214Z,99861.34
2023-02-01T10:13:40.867Z,99856.06
2023-02-01T10:16:36.107Z,99856.66
2023-02-01T10:19:54.180Z,99854.78
2023-02-01T10:23:10.359Z,99864.91
2023-02-01T10:25:50.166Z,99856.81
2023-02-01T10:28:22.626Z,99864.94
2023-02-01T10:30:52.133Z,99864.22
2023-02-01T10:33:27.366Z,99863.56
2023-02-01T10:36:08.047Z,99863.47
2023-02-01T10:38:36.501Z,99869.28
2023-02-01T10:41:20.657Z,99858.19
2023-02-01T10:43:55.610Z,99876.25
2023-02-01T10:46:26.590Z,99872.78
2023-02-01T10:49:00.778Z,99861.59
2023-02-01T10:51:47.446Z,99845.19
2023-02-01T10:54:34.047Z,99861.06
2023-02-01T10:57:02.640Z,99860.13
2023-02-01T10:59:33.616Z,99852.19
2023-02-01T11:02:08.465Z,99845.25
2023-02-01T11:04:37.772Z,99852.06
2023-02-01T11:07:39.190Z,99849.97
2023-02-01T11:10:08.402Z,99836.91
2023-02-01T11:12:40.424Z,99832.47
2023-02-01T11:15:21.000Z,99854.16
2023-02-01T11:17:55.770Z,99842.59
2023-02-01T11:20:44.483Z,99855.69
2023-02-01T11:23:24.161Z,99860.97
2023-02-01T11:25:56.880Z,99861.81
2023-02-01T11:28:33.698Z,99862.28
2023-02-01T11:31:05.966Z,99855.00
2023-02-01T11:33:39.361Z,99846.56
2023-02-01T11:36:22.672Z,99850.22
2023-02-01T11:39:32.891Z,99846.75
2023-02-01T11:42:17.144Z,99849.72
2023-02-01T11:44:48.353Z,99848.41
2023-02-01T11:47:41.249Z,99850.59
2023-02-01T11:50:22.636Z,99842.31
2023-02-01T11:53:11.331Z,99845.31
2023-02-01T11:55:48.014Z,99843.81
2023-02-01T11:58:57.473Z,99833.84
2023-02-01T12:01:56.564Z,99843.63
2023-02-01T12:04:56.239Z,99829.56
2023-02-01T12:08:21.636Z,99822.75
2023-02-01T12:11:30.309Z,99831.53
2023-02-01T12:14:59.319Z,99824.94
2023-02-01T12:17:36.142Z,99828.25
2023-02-01T12:20:07.787Z,99824.41
2023-02-01T12:22:53.762Z,99807.34
2023-02-01T12:26:01.398Z,99804.84
2023-02-01T12:28:47.553Z,99809.50
2023-02-01T12:31:40.560Z,99791.25
2023-02-01T12:34:45.153Z,99785.16
2023-02-01T12:37:55.761Z,99785.78
2023-02-01T12:41:11.397Z,99791.75
2023-02-01T12:44:21.219Z,99790.25
2023-02-01T12:46:56.197Z,99780.00
2023-02-01T12:50:13.717Z,99779.66
2023-02-01T12:52:43.857Z,99768.56
2023-02-01T12:55:20.248Z,99771.06
2023-02-01T12:58:17.733Z,99756.31
2023-02-01T13:00:51.595Z,99765.94
2023-02-01T13:03:42.871Z,99764.41
2023-02-01T13:06:13.127Z,99762.75
2023-02-01T13:08:49.962Z,99761.44
2023-02-01T13:11:26.564Z,99751.19
2023-02-01T13:14:26.635Z,99766.44
2023-02-01T13:17:06.654Z,99751.03
2023-02-01T13:19:44.254Z,99748.53
2023-02-01T13:22:35.828Z,99746.88
2023-02-01T13:25:36.077Z,99759.66
2023-02-01T13:28:13.257Z,99741.09
2023-02-01T13:31:02.764Z,99734.63
2023-02-01T13:33:55.560Z,99727.19
2023-02-01T13:36:35.366Z,99731.97
2023-02-01T13:39:25.009Z,99732.50
2023-02-01T13:41:53.661Z,99723.72
2023-02-01T13:44:42.937Z,99734.28
2023-02-01T13:47:42.174Z,99730.50
2023-02-01T13:50:19.152Z,99731.31
2023-02-01T13:53:06.037Z,99718.88
2023-02-01T13:55:46.877Z,99717.56
2023-02-01T13:58:38.663Z,99712.91
2023-02-01T14:01:25.588Z,99707.94
2023-02-01T14:03:55.015Z,99712.59
2023-02-01T14:06:30.905Z,99712.91
2023-02-01T14:09:19.166Z,99704.31
2023-02-01T14:11:59.037Z,99701.81
2023-02-01T14:14:27.710Z,99701.84
2023-02-01T14:16:56.322Z,99693.34
2023-02-01T14:19:33.888Z,99678.13
2023-02-01T14:22:25.219Z,99675.81
2023-02-01T14:24:59.258Z,99665.22
2023-02-01T14:27:31.573Z,99664.53
2023-02-01T14:30:03.457Z,99658.91
2023-02-01T14:32:40.191Z,99655.13
2023-02-01T14:35:22.747Z,99641.81
2023-02-01T14:37:56.456Z,99648.25
2023-02-01T14:40:30.668Z,99637.28
2023-02-01T14:42:59.091Z,99637.44
2023-02-01T14:45:30.420Z,99633.31
2023-02-01T14:48:07.815Z,99633.50
2023-02-01T14:50:37.970Z,99638.31
2023-02-01T14:53:12.303Z,99652.56
2023-02-01T14:56:08.449Z,99628.75
2023-02-01T14:58:45.143Z,99626.28
2023-02-01T15:01:25.406Z,99627.78
2023-02-01T15:04:06.444Z,99619.19
2023-02-01T15:06:56.641Z,99621.34
2023-02-01T15:09:39.990Z,99619.19
2023-02-01T15:12:15.733Z,99624.19
2023-02-01T15:15:16.204Z,99629.16
2023-02-01T15:17:54.252Z,99625.72
2023-02-01T15:20:31.326Z,99605.84
2023-02-01T15:23:18.649Z,99600.22
2023-02-01T15:25:49.001Z,99586.66
2023-02-01T15:28:19.293Z,99579.03
2023-02-01T15:31:02.582Z,99581.34
2023-02-01T15:33:33.543Z,99584.81
2023-02-01T15:36:08.998Z,99581.19
2023-02-01T15:38:47.672Z,99568.31
2023-02-01T15:41:22.466Z,99586.16
2023-02-01T15:43:56.989Z,99573.25
2023-02-01T15:46:48.176Z,99582.88
2023-02-01T15:49:26.910Z,99576.09
2023-02-01T15:51:56.816Z,99578.56
2023-02-01T15:54:49.939Z,99599.72
2023-02-01T15:57:32.704Z,99614.81
2023-02-01T16:00:06.975Z,99645.56
2023-02-01T16:02:55.374Z,99707.63
2023-02-01T16:05:38.445Z,99799.53
2023-02-01T16:08:25.697Z,99789.09
2023-02-01T16:11:02.911Z,99776.53
2023-02-01T16:13:31.335Z,99769.03
2023-02-01T16:15:59.806Z,99746.50
2023-02-01T16:18:28.262Z,99731.00
2023-02-01T16:20:57.050Z,99723.78
2023-02-01T16:23:25.489Z,99720.19
2023-02-01T16:25:53.934Z,99709.22
2023-02-01T16:28:22.364Z,99703.16
2023-02-01T16:30:51.185Z,99686.13
2023-02-01T16:33:24.091Z,99694.28
2023-02-01T16:35:53.986Z,99711.31
2023-02-01T16:38:24.643Z,99738.34
2023-02-01T16:40:53.226Z,99727.38
2023-02-01T16:43:28.038Z,99720.88
2023-02-01T16:46:03.546Z,99724.75
2023-02-01T16:48:39.648Z,99734.31
2023-02-01T16:51:17.812Z,99725.03
2023-02-01T16:53:54.331Z,99724.34
2023-02-01T16:56:36.710Z,99737.91
2023-02-01T16:59:05.313Z,99745.94
2023-02-01T17:01:33.864Z,99739.16
2023-02-01T17:04:03.463Z,99737.22
2023-02-01T17:06:33.767Z,99729.59
2023-02-01T17:09:03.713Z,99744.97
2023-02-01T17:11:32.676Z,99737.22
2023-02-01T17:14:17.264Z,99736.81
2023-02-01T17:16:46.806Z,99738.19
2023-02-01T17:19:18.918Z,99723.19
2023-02-01T17:21:52.503Z,99736.50
2023-02-01T17:24:25.898Z,99724.59
2023-02-01T17:26:55.787Z,99730.16
2023-02-01T17:29:24.537Z,99737.09
2023-02-01T17:31:56.303Z,99732.09
2023-02-01T17:34:25.144Z,99735.28
2023-02-01T17:36:53.601Z,99746.63
2023-02-01T17:39:39.351Z,99752.88
2023-02-01T17:42:10.443Z,99753.72
2023-02-01T17:44:38.832Z,99747.75
2023-02-01T17:47:07.280Z,99751.34
2023-02-01T17:49:39.032Z,99756.75
2023-02-01T17:52:08.549Z,99755.34
2023-02-01T17:54:37.685Z,99752.03
2023-02-01T17:57:14.903Z,99762.41
2023-02-01T17:59:43.462Z,99768.13
2023-02-01T18:02:24.149Z,99757.03
2023-02-01T18:04:53.275Z,99763.13
2023-02-01T18:07:21.794Z,99766.03
2023-02-01T18:09:50.165Z,99769.22
2023-02-01T18:12:25.525Z,99769.22
2023-02-01T18:14:53.916Z,99774.50
2023-02-01T18:17:22.318Z,99763.13
2023-02-01T18:19:50.678Z,99764.38
2023-02-01T18:22:23.157Z,99763.81
2023-02-01T18:24:51.597Z,99773.38
2023-02-01T18:27:20.032Z,99764.09
2023-02-01T18:29:48.400Z,99768.41
2023-02-01T18:32:17.235Z,99769.22
2023-02-01T18:34:45.619Z,99757.16
2023-02-01T18:37:14.115Z,99759.38
2023-02-01T18:39:42.745Z,99771.16
2023-02-01T18:42:11.953Z,99765.88
2023-02-01T18:44:40.620Z,99778.47
2023-02-01T18:47:09.324Z,99771.59
2023-02-01T18:49:37.990Z,99781.28
2023-02-01T18:52:07.069Z,99776.69
2023-02-01T18:54:35.490Z,99779.19
2023-02-01T18:57:04.131Z,99775.44
2023-02-01T18:59:32.793Z,99775.28
2023-02-01T19:02:03.211Z,99770.59
2023-02-01T19:04:31.895Z,99787.94
2023-02-01T19:07:01.902Z,99775.56
2023-02-01T19:09:32.203Z,99777.81
2023-02-01T19:12:00.895Z,99768.66
2023-02-01T19:14:29.409Z,99772.53
2023-02-01T19:16:58.521Z,99786.25
2023-02-01T19:19:27.792Z,99785.41
2023-02-01T19:21:56.171Z,99784.00
2023-02-01T19:24:28.034Z,99790.13
2023-02-01T19:26:56.885Z,99807.97
2023-02-01T19:29:25.619Z,99828.53
2023-02-01T19:31:54.069Z,99828.38
2023-02-01T19:34:22.746Z,99818.78
2023-02-01T19:36:51.217Z,99822.66
2023-02-01T19:39:20.472Z,99825.16
2023-02-01T19:41:49.074Z,99817.25
2023-02-01T19:44:17.478Z,99826.81
2023-02-01T19:46:45.924Z,99830.56
2023-02-01T19:49:14.350Z,99824.31
2023-02-01T19:51:45.495Z,99831.41
2023-02-01T19:54:14.251Z,99828.22
2023-02-01T19:56:43.715Z,99824.28
2023-02-01T19:59:13.642Z,99837.06
2023-02-01T20:01:44.241Z,99848.16
2023-02-01T20:04:12.794Z,99840.63
2023-02-01T20:06:48.663Z,99843.13
2023-02-01T20:09:19.884Z,99860.06
2023-02-01T20:11:49.195Z,99864.63
2023-02-01T20:14:18.429Z,99874.63
2023-02-01T20:16:47.202Z,99871.69
2023-02-01T20:19:16.443Z,99869.88
2023-02-01T20:21:45.505Z,99864.06
2023-02-01T20:24:17.325Z,99868.88
2023-02-01T20:26:48.060Z,99864.16
2023-02-01T20:29:17.453Z,99871.50
2023-02-01T20:31:46.201Z,99897.19
2023-02-01T20:34:15.350Z,99893.72
2023-02-01T20:36:43.782Z,99901.38
2023-02-01T20:39:12.330Z,99894.97
2023-02-01T20:41:43.610Z,99898.16
2023-02-01T20:44:12.365Z,99908.88
2023-02-01T20:46:40.833Z,99924.25
2023-02-01T20:49:12.455Z,99943.16
2023-02-01T20:51:43.567Z,99933.56
2023-02-01T20:54:12.039Z,99914.44
2023-02-01T20:56:42.676Z,99904.28
2023-02-01T20:59:23.006Z,99904.03
2023-02-01T21:01:54.001Z,99891.25
2023-02-01T21:04:27.859Z,99885.56
2023-02-01T21:07:01.269Z,99901.69
2023-02-01T21:09:30.148Z,99919.56
2023-02-01T21:11:59.246Z,99916.25
2023-02-01T21:14:27.798Z,99913.19
2023-02-01T21:16:56.359Z,99898.50
2023-02-01T21:19:27.763Z,99909.72
2023-02-01T21:21:56.344Z,99933.31
2023-02-01T21:24:24.853Z,99922.78
2023-02-01T21:26:53.438Z,99894.63
2023-02-01T21:29:21.847Z,99924.72
2023-02-01T21:31:50.500Z,99915.56
2023-02-01T21:34:19.069Z,99902.25
2023-02-01T21:36:47.551Z,99903.78
2023-02-01T21:39:17.682Z,99904.91
2023-02-01T21:42:05.649Z,99900.88
2023-02-01T21:44:34.113Z,99903.91
2023-02-01T21:47:02.656Z,99890.34
2023-02-01T21:49:31.324Z,99893.81
2023-02-01T21:52:00.854Z,99895.72
2023-02-01T21:54:29.348Z,99904.19
2023-02-01T21:57:23.854Z,99902.38
2023-02-01T21:59:52.275Z,99911.38
2023-02-01T22:02:21.097Z,99905.28
2023-02-01T22:04:52.469Z,99890.16
2023-02-01T22:07:21.127Z,99886.69
2023-02-01T22:09:49.740Z,99899.59
2023-02-01T22:12:18.348Z,99888.09
2023-02-01T22:14:49.606Z,99888.78
2023-02-01T22:17:18.214Z,99898.63
2023-02-01T22:19:46.816Z,99890.16
2023-02-01T22:22:16.583Z,99887.69
2023-02-01T22:24:45.304Z,99883.66
2023-02-01T22:27:14.729Z,99881.13
2023-02-01T22:29:44.676Z,99885.03
2023-02-01T22:32:14.347Z,99882.25
2023-02-01T22:34:43.072Z,99881.56
2023-02-01T22:37:12.287Z,99876.56
2023-02-01T22:39:41.524Z,99878.63
2023-02-01T22:42:10.188Z,99883.19
2023-02-01T22:44:40.671Z,99887.19
2023-02-01T22:47:10.353Z,99881.94
2023-02-01T22:49:38.994Z,99883.44
2023-02-01T22:52:07.634Z,99891.91
2023-02-01T22:54:36.440Z,99899.13
2023-02-01T22:57:06.138Z,99904.97
2023-02-01T22:59:35.645Z,99918.41
2023-02-01T23:02:04.287Z,99906.50
2023-02-01T23:04:32.844Z,99907.63
2023-02-01T23:07:01.627Z,99921.94
2023-02-01T23:09:30.210Z,99927.50
2023-02-01T23:11:58.862Z,99923.34
2023-02-01T23:14:27.508Z,99917.91
2023-02-01T23:16:56.139Z,99911.69
2023-02-01T23:19:25.037Z,99907.09
2023-02-01T23:21:53.669Z,99921.78
2023-02-01T23:24:22.315Z,99922.22
2023-02-01T23:26:50.994Z,99918.88
2023-02-01T23:29:20.394Z,99925.69
2023-02-01T23:31:49.015Z,99924.03
2023-02-01T23:34:17.682Z,99920.00
2023-02-01T23:36:46.336Z,99929.97
2023-02-01T23:39:14.909Z,99920.16
2023-02-01T23:41:43.588Z,99928.72
2023-02-01T23:44:11.309Z,99930.81
2023-02-01T23:46:47.359Z,99925.69
2023-02-01T23:49:17.841Z,99920.00
2023-02-01T23:51:51.634Z,99930.69
2023-02-01T23:54:21.084Z,99918.59
2023-02-01T23:56:49.889Z,99901.16
2023-02-01T23:59:24.058Z,99905.88
